Time;durP1;ratioP1;P1;durP2;ratioP2;P2;SDS_P1;SDS_P2;PMS_P1;PMS_P2;Temp;Humidity;BMP_temperature;BMP_pressure;BME280_temperature;BME280_humidity;BME280_pressure;Samples;Min_cycle;Max_cycle;Signal;HPM_P1;HPM_P2
2023/01/16 00:01:08;;;;;;;9.43;2.47;;;;;;;3.79;100.00;99489.06;10469858;28;20036;-78
2023/01/16 00:06:08;;;;;;;6.63;1.95;;;;;;;3.85;100.00;99479.03;10479938;28;20465;-77
2023/01/16 00:11:10;;;;;;;6.90;2.10;;;;;;;3.83;100.00;99459.94;10487355;28;20050;-77
2023/01/16 00:16:10;;;;;;;7.10;2.53;;;;;;;3.81;100.00;99462.44;10490876;28;20044;-77
2023/01/16 00:21:11;;;;;;;4.40;2.17;;;;;;;3.92;100.00;99447.47;10481427;28;20131;-78
2023/01/16 00:26:11;;;;;;;7.65;2.75;;;;;;;3.91;100.00;99452.56;10470538;28;20060;-77
2023/01/16 00:31:12;;;;;;;4.78;1.73;;;;;;;3.96;100.00;99438.16;10477169;28;20036;-77
2023/01/16 00:36:13;;;;;;;12.82;1.73;;;;;;;3.95;100.00;99437.28;10488789;28;20086;-78
2023/01/16 00:41:13;;;;;;;3.38;1.42;;;;;;;3.94;100.00;99437.19;10488743;28;20517;-78
2023/01/16 00:46:14;;;;;;;6.20;1.52;;;;;;;3.94;100.00;99425.16;10484469;28;20056;-77
2023/01/16 00:51:14;;;;;;;5.72;2.17;;;;;;;3.87;100.00;99423.06;10492201;28;20032;-77
2023/01/16 00:56:15;;;;;;;6.97;2.13;;;;;;;3.76;100.00;99414.72;10526973;28;20060;-78
2023/01/16 01:01:15;;;;;;;5.47;1.63;;;;;;;3.65;100.00;99409.00;10489436;28;20484;-77
2023/01/16 01:06:16;;;;;;;6.25;2.00;;;;;;;3.49;100.00;99393.50;10499360;28;20445;-77
2023/01/16 01:11:16;;;;;;;4.50;1.67;;;;;;;3.46;100.00;99381.28;10497293;28;20060;-78
2023/01/16 01:16:17;;;;;;;10.48;1.90;;;;;;;3.51;100.00;99377.22;10490909;28;20438;-77
2023/01/16 01:21:17;;;;;;;4.05;1.38;;;;;;;3.64;100.00;99359.75;10487499;28;20040;-77
2023/01/16 01:26:18;;;;;;;6.90;2.83;;;;;;;3.64;100.00;99339.06;10501012;28;20027;-77
2023/01/16 01:31:19;;;;;;;5.90;1.85;;;;;;;3.40;100.00;99334.41;10497435;28;20028;-77
2023/01/16 01:36:19;;;;;;;13.77;3.38;;;;;;;3.25;100.00;99326.75;10468309;28;20037;-77
2023/01/16 01:41:20;;;;;;;8.02;3.08;;;;;;;3.18;100.00;99317.78;10476099;28;20550;-78
2023/01/16 01:46:22;;;;;;;6.60;1.88;;;;;;;2.92;100.00;99312.13;10469077;28;20044;-77
2023/01/16 01:51:34;;;;;;;5.30;1.80;;;;;;;2.77;100.00;99290.63;10466632;28;20441;-78
2023/01/16 01:56:45;;;;;;;16.33;3.13;;;;;;;2.53;100.00;99285.03;10473161;28;20088;-77
2023/01/16 02:01:46;;;;;;;12.27;3.20;;;;;;;2.52;100.00;99268.63;10486554;28;20056;-78
2023/01/16 02:06:52;;;;;;;6.30;2.50;;;;;;;2.25;100.00;99258.59;10488740;28;20039;-77
2023/01/16 02:11:57;;;;;;;14.10;4.70;;;;;;;2.09;100.00;99243.06;10495976;28;20044;-77
2023/01/16 02:22:42;;;;;;;5.18;2.88;;;;;;;1.65;100.00;99232.03;10482739;28;20042;-77
2023/01/16 02:28:01;;;;;;;4.50;2.35;;;;;;;1.64;100.00;99223.38;10509633;28;20181;-78
2023/01/16 02:33:40;;;;;;;7.45;2.53;;;;;;;1.45;100.00;99206.88;10508731;28;20044;-77
2023/01/16 02:38:55;;;;;;;4.80;2.10;;;;;;;1.26;100.00;99193.72;10367572;28;20098;-77
2023/01/16 02:43:59;;;;;;;4.60;1.50;;;;;;;1.25;100.00;99185.13;10453496;28;20078;-77
2023/01/16 02:49:16;;;;;;;8.63;2.30;;;;;;;1.08;100.00;99168.66;10475786;28;20090;-78
2023/01/16 02:54:24;;;;;;;7.90;3.08;;;;;;;1.13;100.00;99146.63;10449411;28;20055;-78
2023/01/16 02:59:25;;;;;;;17.33;3.30;;;;;;;1.10;100.00;99131.00;10449652;28;20123;-77
2023/01/16 03:04:50;;;;;;;7.53;2.70;;;;;;;1.15;100.00;99123.53;10478342;28;20515;-77
2023/01/16 03:10:13;;;;;;;7.55;2.72;;;;;;;1.26;100.00;99116.41;10482512;28;20036;-77
2023/01/16 03:15:19;;;;;;;6.57;2.47;;;;;;;1.33;100.00;99110.78;10504974;28;20036;-78
2023/01/16 03:20:31;;;;;;;8.48;2.40;;;;;;;1.36;100.00;99092.91;10483108;28;20053;-77
2023/01/16 03:25:34;;;;;;;5.00;1.73;;;;;;;1.45;100.00;99077.97;10477035;28;20162;-78
2023/01/16 03:30:47;;;;;;;3.58;1.30;;;;;;;1.52;100.00;99065.41;10487485;28;20044;-77
2023/01/16 03:35:56;;;;;;;6.43;1.58;;;;;;;1.49;100.00;99057.50;10489708;28;20085;-77
2023/01/16 03:40:56;;;;;;;4.75;1.40;;;;;;;1.57;100.00;99046.81;10467815;28;20044;-77
2023/01/16 03:46:09;;;;;;;4.45;1.42;;;;;;;1.54;100.00;99018.28;10480821;28;20051;-78
2023/01/16 03:51:12;;;;;;;3.95;1.73;;;;;;;1.53;100.00;98997.56;10484847;28;20107;-77
2023/01/16 03:56:26;;;;;;;7.57;2.42;;;;;;;1.51;100.00;98979.44;10504945;28;20056;-77
2023/01/16 04:01:41;;;;;;;5.68;2.05;;;;;;;1.54;100.00;98955.50;10487259;28;20173;-78
2023/01/16 04:06:46;;;;;;;16.52;2.75;;;;;;;1.64;100.00;98942.28;10514040;28;20445;-77
2023/01/16 04:11:46;;;;;;;9.20;2.08;;;;;;;1.65;100.00;98930.28;10486862;28;20105;-78
2023/01/16 04:16:47;;;;;;;6.43;3.30;;;;;;;1.67;100.00;98906.34;10485175;28;20437;-78
2023/01/16 04:21:47;;;;;;;18.58;2.10;;;;;;;1.72;100.00;98896.28;10466506;28;20039;-78
2023/01/16 04:26:51;;;;;;;4.47;1.70;;;;;;;1.92;100.00;98870.59;10475126;28;20035;-77
2023/01/16 04:31:51;;;;;;;14.30;2.65;;;;;;;1.97;100.00;98851.06;10503925;28;20041;-78
2023/01/16 04:36:52;;;;;;;5.85;1.95;;;;;;;2.04;100.00;98835.94;10504124;28;20829;-77
2023/01/16 04:41:52;;;;;;;5.15;2.38;;;;;;;2.12;100.00;98813.09;10498277;28;20122;-78
2023/01/16 04:46:53;;;;;;;5.38;1.80;;;;;;;2.10;100.00;98795.75;10501081;28;20036;-77
2023/01/16 04:51:54;;;;;;;3.93;1.80;;;;;;;2.12;100.00;98769.25;10497718;28;20043;-78
2023/01/16 04:56:54;;;;;;;4.32;1.63;;;;;;;2.24;100.00;98745.69;10525197;28;20070;-78
2023/01/16 05:01:55;;;;;;;5.78;1.38;;;;;;;2.30;100.00;98737.34;10502760;28;20520;-78
2023/01/16 05:06:55;;;;;;;8.15;1.55;;;;;;;2.43;100.00;98712.97;10508910;28;20126;-78
2023/01/16 05:11:56;;;;;;;5.68;1.98;;;;;;;2.55;100.00;98702.31;10506612;28;20388;-79
2023/01/16 05:16:56;;;;;;;3.42;0.98;;;;;;;2.64;100.00;98672.59;10525495;28;20067;-79
2023/01/16 05:21:57;;;;;;;6.00;1.30;;;;;;;2.77;100.00;98648.22;10523508;28;20152;-78
2023/01/16 05:26:57;;;;;;;3.80;1.02;;;;;;;2.81;100.00;98638.88;10525085;28;20044;-77
2023/01/16 05:31:58;;;;;;;3.85;1.27;;;;;;;2.90;100.00;98623.75;10483697;28;20043;-79
2023/01/16 05:36:58;;;;;;;8.02;1.42;;;;;;;2.95;100.00;98595.53;10520260;28;20518;-78
2023/01/16 05:41:59;;;;;;;4.50;0.77;;;;;;;2.98;100.00;98587.03;10488736;28;20068;-78
2023/01/16 05:46:59;;;;;;;5.22;0.95;;;;;;;2.98;100.00;98571.50;10508826;28;20071;-77
2023/01/16 05:52:00;;;;;;;3.97;0.80;;;;;;;3.05;100.00;98563.19;10515041;28;20441;-78
2023/01/16 05:57:01;;;;;;;1.35;0.70;;;;;;;3.12;100.00;98535.91;10502859;28;20040;-76
2023/01/16 06:02:01;;;;;;;2.25;0.63;;;;;;;3.18;100.00;98508.59;10495793;28;20043;-79
2023/01/16 06:07:02;;;;;;;4.63;0.90;;;;;;;3.15;100.00;98486.91;10507243;28;20050;-79
2023/01/16 06:12:02;;;;;;;2.75;0.70;;;;;;;3.12;100.00;98481.63;10469451;28;20394;-79
2023/01/16 06:17:03;;;;;;;5.00;1.10;;;;;;;3.04;100.00;98484.78;10485588;28;20510;-77
2023/01/16 06:22:04;;;;;;;6.72;0.63;;;;;;;3.01;100.00;98469.16;10489266;28;20177;-78
2023/01/16 06:27:04;;;;;;;5.57;1.45;;;;;;;3.07;100.00;98448.72;10522463;28;20586;-80
2023/01/16 06:32:05;;;;;;;2.60;0.60;;;;;;;2.90;100.00;98439.44;10485820;28;20040;-80
2023/01/16 06:37:06;;;;;;;4.90;0.75;;;;;;;2.81;100.00;98426.16;10520646;28;20046;-80
2023/01/16 06:42:06;;;;;;;3.22;1.23;;;;;;;2.87;100.00;98416.94;10479936;28;20568;-81
2023/01/16 06:47:08;;;;;;;3.38;1.52;;;;;;;2.99;100.00;98390.69;10479098;28;20040;-80
2023/01/16 06:52:09;;;;;;;1.92;0.90;;;;;;;3.14;100.00;98366.25;10485232;28;20101;-81
2023/01/16 06:57:09;;;;;;;3.88;0.90;;;;;;;3.01;100.00;98351.97;10493684;28;20565;-81
2023/01/16 07:02:10;;;;;;;1.98;0.90;;;;;;;2.84;100.00;98341.03;10518681;28;20048;-82
2023/01/16 07:07:10;;;;;;;3.35;1.63;;;;;;;2.68;100.00;98329.22;10475314;28;20131;-80
2023/01/16 07:12:11;;;;;;;5.50;1.25;;;;;;;2.56;100.00;98312.44;10472140;28;20103;-83
2023/01/16 07:22:35;;;;;;;3.70;1.05;;;;;;;2.50;100.00;98278.63;10450105;28;20039;-84
2023/01/16 07:27:36;;;;;;;2.75;0.70;;;;;;;2.47;100.00;98265.59;10520233;28;20043;-80
2023/01/16 07:32:36;;;;;;;6.38;1.30;;;;;;;2.47;100.00;98253.59;10487959;28;20032;-88
2023/01/16 07:37:38;;;;;;;4.13;1.13;;;;;;;2.47;100.00;98239.78;10505454;28;20491;-83
2023/01/16 07:42:38;;;;;;;;;;;;;;;2.54;100.00;98235.75;10482321;28;20503;-80
2023/01/16 07:47:39;;;;;;;5.80;1.15;;;;;;;2.59;100.00;98211.84;10497017;28;19927;-81
2023/01/16 07:52:39;;;;;;;8.73;2.15;;;;;;;2.63;100.00;98199.94;10524407;28;20055;-80
2023/01/16 07:57:40;;;;;;;4.80;1.35;;;;;;;2.63;100.00;98189.59;10454989;28;20044;-80
2023/01/16 08:02:41;;;;;;;7.82;2.28;;;;;;;2.68;100.00;98177.72;10486813;28;20076;-81
2023/01/16 08:07:41;;;;;;;12.00;4.07;;;;;;;2.69;100.00;98165.69;10503637;28;20039;-80
2023/01/16 08:12:42;;;;;;;7.35;3.42;;;;;;;2.71;100.00;98153.69;10467357;28;20043;-80
2023/01/16 08:17:43;;;;;;;8.85;2.08;;;;;;;2.76;100.00;98145.31;10498999;28;20097;-80
2023/01/16 08:22:47;;;;;;;5.10;1.83;;;;;;;2.77;100.00;98133.25;10494565;28;20040;-80
2023/01/16 08:27:47;;;;;;;10.57;2.47;;;;;;;2.78;100.00;98125.56;10477346;28;20089;-80
2023/01/16 08:32:48;;;;;;;3.65;1.80;;;;;;;2.88;100.00;98120.72;10466666;28;20077;-81
2023/01/16 08:37:49;;;;;;;4.43;1.60;;;;;;;2.95;100.00;98114.94;10479084;28;20067;-79
2023/01/16 08:53:27;;;;;;;1.80;0.65;;;;;;;2.96;100.00;98082.19;10481380;28;20492;-80
2023/01/16 08:58:28;;;;;;;2.15;1.40;;;;;;;2.86;100.00;98076.72;10497828;28;20044;-80
2023/01/16 09:03:29;;;;;;;1.75;0.43;;;;;;;2.79;100.00;98062.75;10467334;28;20437;-80
2023/01/16 09:08:29;;;;;;;4.15;2.03;;;;;;;2.72;100.00;98063.38;10444138;28;20151;-80
2023/01/16 09:18:49;;;;;;;2.95;1.25;;;;;;;2.77;100.00;98048.00;10482381;28;20484;-79
2023/01/16 09:23:50;;;;;;;3.00;0.95;;;;;;;2.81;100.00;98051.59;10488021;28;20047;-78
2023/01/16 09:28:51;;;;;;;1.57;0.90;;;;;;;2.85;100.00;98056.88;10456841;28;20047;-79
2023/01/16 09:33:52;;;;;;;1.90;1.10;;;;;;;2.90;100.00;98036.38;10483853;28;20055;-81
2023/01/16 09:38:53;;;;;;;0.55;0.30;;;;;;;3.02;100.00;98022.97;10501621;28;20453;-80
2023/01/16 09:43:53;;;;;;;0.43;0.10;;;;;;;3.08;100.00;98013.72;10497917;28;20090;-82
2023/01/16 09:48:55;;;;;;;0.20;0.20;;;;;;;3.22;100.00;98001.22;10453313;28;20476;-79
2023/01/16 09:59:25;;;;;;;0.30;0.20;;;;;;;3.50;100.00;97986.53;10488771;28;20056;-78
2023/01/16 10:04:25;;;;;;;0.47;0.32;;;;;;;3.58;100.00;97965.19;10472829;28;20040;-79
2023/01/16 10:10:03;;;;;;;1.48;0.57;;;;;;;3.70;100.00;97949.16;10464259;28;20119;-78
2023/01/16 10:15:37;;;;;;;0.85;0.40;;;;;;;3.87;100.00;97941.84;10499151;28;20093;-78
2023/01/16 10:21:03;;;;;;;0.82;0.30;;;;;;;3.96;100.00;97930.06;10484354;28;20048;-79
2023/01/16 10:26:08;;;;;;;2.75;0.30;;;;;;;4.03;100.00;97922.44;10470231;28;20072;-78
2023/01/16 10:31:16;;;;;;;1.17;0.50;;;;;;;4.10;100.00;97920.03;10456246;28;20484;-77
2023/01/16 10:36:17;;;;;;;0.98;0.50;;;;;;;4.13;100.00;97905.44;10446098;28;20059;-77
2023/01/16 10:52:15;;;;;;;1.27;0.65;;;;;;;4.10;100.00;97865.69;10472259;28;20499;-78
2023/01/16 10:57:17;;;;;;;0.40;0.30;;;;;;;4.21;100.00;97859.91;10461224;28;20051;-78
2023/01/16 11:02:34;;;;;;;1.60;0.47;;;;;;;4.29;100.00;97850.63;10461305;28;20037;-78
2023/01/16 11:07:35;;;;;;;2.05;0.43;;;;;;;4.67;100.00;97824.72;10450447;28;20053;-78
2023/01/16 11:23:19;;;;;;;1.38;0.35;;;;;;;4.94;100.00;97776.94;10465579;28;20041;-77
2023/01/16 11:28:30;;;;;;;3.05;0.82;;;;;;;4.75;100.00;97761.84;10502508;28;20051;-79
2023/01/16 11:33:37;;;;;;;0.93;0.50;;;;;;;4.95;100.00;97742.38;10472311;28;20392;-80
2023/01/16 11:38:38;;;;;;;1.48;0.70;;;;;;;5.17;100.00;97734.16;10481697;28;20047;-79
2023/01/16 11:49:17;;;;;;;0.88;0.30;;;;;;;5.43;100.00;97700.91;10480904;28;20044;-78
2023/01/16 11:54:19;;;;;;;0.20;0.20;;;;;;;5.35;100.00;97698.19;10463126;28;20110;-77
2023/01/16 11:59:26;;;;;;;0.63;0.43;;;;;;;5.33;100.00;97692.13;10463348;28;20033;-78
2023/01/16 12:04:26;;;;;;;0.20;0.17;;;;;;;5.33;100.00;97684.34;10464169;28;20053;-77
2023/01/16 12:09:30;;;;;;;0.60;0.30;;;;;;;5.32;100.00;97663.53;10452775;28;20127;-79
2023/01/16 12:14:36;;;;;;;0.20;0.20;;;;;;;5.33;100.00;97647.13;10490462;28;20051;-78
2023/01/16 12:19:50;;;;;;;0.52;0.30;;;;;;;5.29;100.00;97641.91;10477479;28;20044;-78
2023/01/16 12:25:19;;;;;;;1.60;0.70;;;;;;;5.28;100.00;97636.69;10470433;28;20044;-79
2023/01/16 12:30:33;;;;;;;1.20;0.40;;;;;;;4.98;100.00;97641.38;10487522;28;20039;-79
2023/01/16 12:35:57;;;;;;;2.97;1.00;;;;;;;4.80;100.00;97617.69;10471213;28;20085;-79
2023/01/16 12:46:52;;;;;;;0.93;0.40;;;;;;;4.73;100.00;97610.66;10500316;28;20035;-79
2023/01/16 12:51:55;;;;;;;0.77;0.20;;;;;;;5.02;100.00;97590.47;10528199;28;20048;-79
2023/01/16 12:57:33;;;;;;;1.65;0.40;;;;;;;5.17;100.00;97568.25;10528433;28;20365;-80
2023/01/16 13:02:39;;;;;;;1.60;0.70;;;;;;;5.16;100.00;97567.34;10511622;28;20055;-79
2023/01/16 13:07:54;;;;;;;1.73;0.93;;;;;;;5.16;100.00;97548.34;10509439;28;20044;-79
2023/01/16 13:18:28;;;;;;;0.80;0.40;;;;;;;5.18;100.00;97534.53;10497508;28;20048;-79
2023/01/16 13:24:06;;;;;;;0.20;0.20;;;;;;;5.28;100.00;97531.25;10510416;28;20063;-80
2023/01/16 13:29:13;;;;;;;0.63;0.40;;;;;;;5.40;100.00;97533.16;10526357;28;20490;-79
2023/01/16 13:34:18;;;;;;;0.98;0.40;;;;;;;5.49;100.00;97526.38;10507980;28;20040;-79
2023/01/16 13:39:39;;;;;;;0.60;0.22;;;;;;;5.46;100.00;97514.22;10491952;28;20111;-79
2023/01/16 13:50:08;;;;;;;0.10;0.10;;;;;;;5.00;100.00;97514.41;10496535;28;20445;-80
2023/01/16 13:55:29;;;;;;;0.30;0.30;;;;;;;4.65;100.00;97518.13;10485361;28;20460;-80
2023/01/16 14:00:29;;;;;;;0.40;0.32;;;;;;;4.38;100.00;97523.72;10431469;28;20044;-79
2023/01/16 14:05:36;;;;;;;0.20;0.20;;;;;;;4.04;100.00;97512.72;10449131;28;20041;-78
2023/01/16 14:10:40;;;;;;;1.88;0.20;;;;;;;3.89;100.00;97516.72;10483398;28;20171;-78
2023/01/16 14:21:19;;;;;;;1.00;0.43;;;;;;;3.86;100.00;97519.25;10468818;28;20032;-78
2023/01/16 14:26:30;;;;;;;1.90;0.43;;;;;;;3.86;100.00;97515.78;10463926;28;20112;-77
2023/01/16 14:31:38;;;;;;;2.08;0.93;;;;;;;3.95;100.00;97514.28;10463680;28;20036;-78
2023/01/16 14:36:38;;;;;;;1.05;0.70;;;;;;;4.09;100.00;97516.25;10462337;28;20061;-78
2023/01/16 14:58:03;;;;;;;1.58;0.57;;;;;;;3.59;100.00;97507.50;10505926;28;20040;-78
2023/01/16 15:03:09;;;;;;;0.50;0.35;;;;;;;3.55;100.00;97517.72;10463433;28;20039;-77
2023/01/16 15:08:10;;;;;;;0.32;0.30;;;;;;;3.43;100.00;97518.34;10463758;28;20519;-77
2023/01/16 15:13:23;;;;;;;0.20;0.20;;;;;;;3.31;100.00;97524.09;10488555;28;20135;-77
2023/01/16 15:23:42;;;;;;;0.30;0.30;;;;;;;3.24;100.00;97517.94;10466450;28;20049;-77
2023/01/16 15:28:59;;;;;;;4.80;0.60;;;;;;;3.16;100.00;97516.88;10465166;28;20053;-77
2023/01/16 15:34:00;;;;;;;0.73;0.40;;;;;;;3.14;100.00;97516.81;10479074;28;20125;-77
2023/01/16 15:39:25;;;;;;;1.65;0.60;;;;;;;3.11;100.00;97515.91;10440639;28;20515;-77
2023/01/16 15:50:12;;;;;;;2.13;0.63;;;;;;;2.96;100.00;97522.44;10458369;28;20048;-76
2023/01/16 15:55:21;;;;;;;1.83;0.70;;;;;;;3.04;100.00;97525.19;10516195;28;20279;-76
2023/01/16 16:00:23;;;;;;;0.65;0.35;;;;;;;3.00;100.00;97523.38;10469128;28;20396;-77
2023/01/16 16:05:24;;;;;;;1.15;0.52;;;;;;;2.97;100.00;97531.06;10472369;28;20518;-76
2023/01/16 16:21:16;;;;;;;1.80;1.25;;;;;;;2.88;100.00;97535.16;10450142;28;20048;-78
2023/01/16 16:26:19;;;;;;;1.83;1.20;;;;;;;2.93;100.00;97530.13;10462795;28;20498;-78
2023/01/16 16:31:33;;;;;;;3.55;1.40;;;;;;;2.92;100.00;97539.56;10443823;28;20477;-77
2023/01/16 16:36:42;;;;;;;2.20;1.00;;;;;;;2.90;100.00;97535.22;10429181;28;20056;-77
2023/01/16 16:47:23;;;;;;;1.15;0.70;;;;;;;2.92;100.00;97536.97;10472444;28;20044;-78
2023/01/16 16:52:33;;;;;;;1.15;0.70;;;;;;;2.91;100.00;97545.56;10469862;28;20033;-78
2023/01/16 16:57:41;;;;;;;1.23;0.70;;;;;;;2.85;100.00;97540.25;10475436;28;20132;-77
2023/01/16 17:02:43;;;;;;;5.18;1.48;;;;;;;2.85;100.00;97542.84;10445570;28;20044;-78
2023/01/16 17:07:45;;;;;;;2.42;1.10;;;;;;;2.87;100.00;97556.66;10447526;28;20500;-78
2023/01/16 17:12:46;;;;;;;2.08;0.82;;;;;;;2.91;100.00;97550.75;10483287;28;20042;-78
2023/01/16 17:17:46;;;;;;;3.33;0.80;;;;;;;2.89;100.00;97557.56;10479887;28;20052;-78
2023/01/16 17:22:48;;;;;;;2.03;1.02;;;;;;;2.88;100.00;97558.41;10454965;28;20088;-77
2023/01/16 17:27:49;;;;;;;;;;;;;;;2.97;100.00;97562.06;10476049;28;20040;-78
2023/01/16 17:32:56;;;;;;;1.95;0.82;;;;;;;3.00;100.00;97562.13;10473703;28;19921;-78
2023/01/16 17:37:57;;;;;;;1.38;0.85;;;;;;;2.94;100.00;97566.31;10468040;28;20067;-78
2023/01/16 17:48:17;;;;;;;2.42;1.27;;;;;;;2.67;100.00;97575.94;10458746;28;20128;-79
2023/01/16 17:53:19;;;;;;;3.55;1.20;;;;;;;2.76;100.00;97578.75;10468202;28;20036;-79
2023/01/16 17:58:42;;;;;;;2.08;1.23;;;;;;;2.82;100.00;97593.56;10458672;28;20113;-80
2023/01/16 18:04:01;;;;;;;4.07;1.60;;;;;;;2.88;100.00;97602.31;10466664;28;20105;-78
2023/01/16 18:09:06;;;;;;;5.10;2.15;;;;;;;2.83;100.00;97608.22;10460368;28;20048;-78
2023/01/16 18:19:28;;;;;;;6.68;4.32;;;;;;;2.90;100.00;97628.22;10469828;28;20036;-78
2023/01/16 18:24:39;;;;;;;5.65;4.00;;;;;;;2.75;100.00;97631.25;10483656;28;20035;-78
2023/01/16 18:29:39;;;;;;;7.20;4.80;;;;;;;2.59;100.00;97654.06;10482256;28;20369;-78
2023/01/16 18:34:40;;;;;;;7.50;4.55;;;;;;;2.45;100.00;97655.41;10466241;28;20032;-78
2023/01/16 19:06:16;;;;;;;12.88;8.82;;;;;;;2.08;100.00;97724.88;10524521;28;20036;-78
2023/01/16 19:11:20;;;;;;;16.50;10.90;;;;;;;2.12;100.00;97737.03;10464895;28;20541;-78
2023/01/16 19:21:40;;;;;;;15.20;10.77;;;;;;;2.11;100.00;97755.03;10479616;28;20465;-77
2023/01/16 19:26:44;;;;;;;15.07;10.60;;;;;;;2.17;100.00;97768.13;10489468;28;20032;-77
2023/01/16 19:31:45;;;;;;;16.00;12.00;;;;;;;2.17;100.00;97773.28;10505093;28;20039;-76
2023/01/16 19:36:45;;;;;;;13.20;10.35;;;;;;;2.17;100.00;97788.78;10505446;28;20024;-77
2023/01/16 19:47:05;;;;;;;10.43;8.45;;;;;;;2.22;100.00;97805.28;10507899;28;20048;-77
2023/01/16 19:52:09;;;;;;;9.90;8.00;;;;;;;2.22;100.00;97813.03;10488349;28;20040;-78
2023/01/16 19:57:09;;;;;;;13.23;8.05;;;;;;;2.24;100.00;97831.16;10489108;28;20488;-77
2023/01/16 20:02:10;;;;;;;7.63;6.25;;;;;;;2.21;100.00;97834.50;10523238;28;20039;-78
2023/01/16 20:07:12;;;;;;;8.50;5.65;;;;;;;2.18;100.00;97850.78;10521586;28;20445;-77
2023/01/16 20:12:29;;;;;;;10.30;6.45;;;;;;;2.18;100.00;97861.09;10504935;28;20067;-77
2023/01/16 20:17:33;;;;;;;8.60;5.57;;;;;;;2.14;100.00;97866.97;10492761;28;20480;-77
2023/01/16 20:22:34;;;;;;;8.57;5.22;;;;;;;2.16;100.00;97872.19;10488180;28;20032;-78
2023/01/16 20:27:37;;;;;;;6.88;4.82;;;;;;;2.18;100.00;97881.75;10522601;28;20452;-78
2023/01/16 20:32:38;;;;;;;7.60;4.88;;;;;;;2.24;100.00;97893.94;10487555;28;20032;-77
2023/01/16 20:37:38;;;;;;;10.10;6.72;;;;;;;2.23;100.00;97902.53;10510833;28;20452;-77
2023/01/16 20:47:58;;;;;;;8.27;4.68;;;;;;;2.24;100.00;97908.56;10488799;28;20480;-78
2023/01/16 20:52:58;;;;;;;5.88;4.00;;;;;;;2.15;100.00;97899.69;10468911;28;20119;-77
2023/01/16 20:57:59;;;;;;;6.63;4.53;;;;;;;2.01;100.00;97922.44;10494194;28;20059;-77
2023/01/16 21:02:59;;;;;;;4.65;3.55;;;;;;;1.92;100.00;97929.84;10492560;28;20043;-78
2023/01/16 21:08:00;;;;;;;7.03;3.45;;;;;;;1.95;100.00;97937.72;10452026;28;20744;-77
2023/01/16 21:23:38;;;;;;;9.77;3.75;;;;;;;2.04;100.00;97970.69;10495037;28;20487;-78
2023/01/16 21:28:38;;;;;;;6.18;3.17;;;;;;;2.03;100.00;97966.38;10525300;28;20177;-77
2023/01/16 21:33:39;;;;;;;6.00;3.00;;;;;;;2.00;100.00;97963.69;10527074;28;20573;-77
2023/01/16 21:38:40;;;;;;;5.15;3.08;;;;;;;2.00;100.00;97971.41;10485993;28;20043;-77
2023/01/16 21:49:02;;;;;;;7.07;2.90;;;;;;;1.92;100.00;97978.00;10475761;28;20396;-77
2023/01/16 21:54:03;;;;;;;5.25;2.97;;;;;;;1.87;100.00;97989.03;10507060;28;20385;-77
2023/01/16 21:59:03;;;;;;;8.50;3.72;;;;;;;1.91;100.00;98000.31;10486406;28;20036;-77
2023/01/16 22:04:04;;;;;;;5.88;3.78;;;;;;;1.88;100.00;98021.75;10468400;28;20052;-78
2023/01/16 22:09:05;;;;;;;5.57;3.40;;;;;;;1.86;100.00;98032.81;10505423;28;20044;-77
2023/01/16 22:19:28;;;;;;;9.05;4.90;;;;;;;1.85;100.00;98033.63;10485515;28;20040;-77
2023/01/16 22:24:29;;;;;;;7.30;4.43;;;;;;;1.86;100.00;98033.72;10466324;28;20093;-78
2023/01/16 22:29:29;;;;;;;13.43;8.05;;;;;;;1.87;100.00;98050.03;10508842;28;20544;-78
2023/01/16 22:34:30;;;;;;;8.30;4.55;;;;;;;1.93;100.00;98067.47;10490800;28;20113;-78
2023/01/16 22:39:30;;;;;;;5.82;2.92;;;;;;;1.77;100.00;98084.94;10482692;28;20036;-78
2023/01/16 22:49:50;;;;;;;4.38;2.58;;;;;;;1.48;100.00;98097.59;10493372;28;20052;-79
2023/01/16 22:54:51;;;;;;;4.80;2.63;;;;;;;1.48;100.00;98099.28;10470666;28;20097;-78
2023/01/16 22:59:51;;;;;;;4.68;2.15;;;;;;;1.43;100.00;98110.28;10491491;28;20123;-78
2023/01/16 23:04:52;;;;;;;4.15;1.40;;;;;;;1.33;100.00;98128.78;10486686;28;20058;-78
2023/01/16 23:09:52;;;;;;;2.80;1.13;;;;;;;1.19;100.00;98137.66;10509692;28;20036;-78
2023/01/16 23:14:53;;;;;;;1.73;1.02;;;;;;;1.08;100.00;98147.53;10473181;28;20046;-77
2023/01/16 23:19:54;;;;;;;2.42;1.70;;;;;;;1.00;100.00;98144.63;10500220;28;20189;-77
2023/01/16 23:24:54;;;;;;;2.95;1.50;;;;;;;1.00;100.00;98150.66;10501157;28;20040;-77
2023/01/16 23:29:55;;;;;;;4.05;2.10;;;;;;;1.07;100.00;98148.34;10482874;28;20426;-76
2023/01/16 23:34:55;;;;;;;5.38;3.25;;;;;;;1.14;100.00;98164.09;10504722;28;20115;-78
2023/01/16 23:39:56;;;;;;;9.13;3.42;;;;;;;1.22;100.00;98176.44;10485170;28;20407;-76
2023/01/16 23:44:56;;;;;;;10.35;4.32;;;;;;;1.34;100.00;98169.19;10486969;28;20048;-77
2023/01/16 23:49:57;;;;;;;10.68;3.70;;;;;;;1.45;100.00;98188.56;10514891;28;20131;-77
2023/01/16 23:54:57;;;;;;;7.22;2.50;;;;;;;1.50;100.00;98177.56;10487950;28;20481;-77
2023/01/16 23:59:58;;;;;;;9.57;4.47;;;;;;;1.45;100.00;98196.28;10497115;28;20047;-76
